Time;durP1;ratioP1;P1;durP2;ratioP2;P2;SDS_P1;SDS_P2;PMS_P1;PMS_P2;Temp;Humidity;BMP_temperature;BMP_pressure;BME280_temperature;BME280_humidity;BME280_pressure;Samples;Min_cycle;Max_cycle;Signal;HPM_P1;HPM_P2
2022/12/04 00:00:13;;;;;;;79.68;39.58;;;2.50;99.90;;;;;;5029534;28;20041;-67
2022/12/04 00:02:40;;;;;;;79.30;37.60;;;2.50;99.90;;;;;;5031067;28;20033;-67
2022/12/04 00:05:07;;;;;;;74.75;38.38;;;2.50;99.90;;;;;;5032243;28;20037;-68
2022/12/04 00:07:32;;;;;;;72.18;38.67;;;2.60;99.90;;;;;;5023233;28;20027;-68
2022/12/04 00:09:58;;;;;;;75.22;37.22;;;2.60;99.90;;;;;;5033654;28;20044;-67
2022/12/04 00:12:23;;;;;;;73.07;37.88;;;2.60;99.90;;;;;;5033691;28;20025;-67
2022/12/04 00:14:49;;;;;;;71.38;35.58;;;2.50;99.90;;;;;;5033508;28;20484;-69
2022/12/04 00:17:15;;;;;;;77.45;38.47;;;2.60;99.90;;;;;;5030554;28;20025;-69
2022/12/04 00:19:40;;;;;;;70.18;37.08;;;2.60;99.90;;;;;;5031845;28;20060;-69
2022/12/04 00:22:06;;;;;;;83.80;38.33;;;2.60;99.90;;;;;;5034214;28;20025;-68
2022/12/04 00:24:33;;;;;;;77.00;38.03;;;2.60;99.90;;;;;;5031705;28;20037;-69
2022/12/04 00:26:58;;;;;;;77.15;38.85;;;2.60;99.90;;;;;;5033535;28;20184;-69
2022/12/04 00:29:24;;;;;;;78.50;39.15;;;2.60;99.90;;;;;;5032167;28;20037;-69
2022/12/04 00:31:50;;;;;;;71.57;37.85;;;2.60;99.90;;;;;;5033728;28;20076;-68
2022/12/04 00:34:16;;;;;;;76.25;38.58;;;2.60;99.90;;;;;;5033582;28;20052;-68
2022/12/04 00:36:41;;;;;;;71.20;37.35;;;2.60;99.90;;;;;;5017140;28;20030;-68
2022/12/04 00:39:07;;;;;;;82.72;39.75;;;2.60;99.90;;;;;;5033174;28;20052;-68
2022/12/04 00:41:33;;;;;;;75.18;37.95;;;2.50;99.90;;;;;;5021550;28;20057;-68
2022/12/04 00:44:00;;;;;;;79.38;37.67;;;2.60;99.90;;;;;;5027440;28;20061;-68
2022/12/04 00:46:26;;;;;;;79.22;39.28;;;2.60;99.90;;;;;;5034434;28;20041;-68
2022/12/04 00:48:52;;;;;;;76.20;39.97;;;2.50;99.90;;;;;;5033080;28;20491;-68
2022/12/04 00:51:23;;;;;;;82.38;38.33;;;2.50;99.90;;;;;;5032873;28;20029;-69
2022/12/04 00:53:50;;;;;;;72.28;36.60;;;2.60;99.90;;;;;;5033701;28;20531;-69
2022/12/04 00:56:19;;;;;;;79.45;37.83;;;2.60;99.90;;;;;;5033255;28;20033;-69
2022/12/04 00:58:45;;;;;;;76.97;39.65;;;2.60;99.90;;;;;;5032922;28;20036;-69
2022/12/04 01:01:14;;;;;;;73.20;38.70;;;2.60;99.90;;;;;;5048016;28;20026;-68
2022/12/04 01:03:40;;;;;;;83.45;40.13;;;2.60;99.90;;;;;;5019925;28;20060;-69
2022/12/04 01:06:15;;;;;;;86.00;42.50;;;2.50;99.90;;;;;;5033423;28;20130;-69
2022/12/04 01:08:42;;;;;;;93.82;41.92;;;2.50;99.90;;;;;;5029920;28;20026;-68
2022/12/04 01:11:08;;;;;;;84.20;41.55;;;2.60;99.90;;;;;;5034165;28;20037;-68
2022/12/04 01:13:33;;;;;;;82.60;40.20;;;2.60;99.90;;;;;;5032334;28;20067;-68
2022/12/04 01:16:00;;;;;;;84.15;39.40;;;2.60;99.90;;;;;;5033711;28;20041;-68
2022/12/04 01:18:26;;;;;;;81.07;41.30;;;2.50;99.90;;;;;;5031546;28;20017;-68
2022/12/04 01:20:52;;;;;;;84.95;41.53;;;2.50;99.90;;;;;;5033713;28;20083;-69
2022/12/04 01:23:18;;;;;;;70.60;35.40;;;2.60;99.90;;;;;;5031668;28;20017;-68
2022/12/04 01:25:57;;;;;;;83.70;41.28;;;2.60;99.90;;;;;;5032908;28;20037;-68
2022/12/04 01:28:24;;;;;;;82.07;38.75;;;2.60;99.90;;;;;;5032474;28;20175;-68
2022/12/04 01:31:00;;;;;;;79.43;39.58;;;2.60;99.90;;;;;;5013795;28;20057;-68
2022/12/04 01:33:27;;;;;;;73.82;37.70;;;2.60;99.90;;;;;;5029583;28;20029;-69
2022/12/04 01:35:55;;;;;;;86.78;43.90;;;2.60;99.90;;;;;;5019729;28;20029;-68
2022/12/04 01:38:21;;;;;;;87.40;41.55;;;2.70;99.90;;;;;;5024648;28;20025;-68
2022/12/04 01:40:49;;;;;;;81.97;39.97;;;2.60;99.90;;;;;;5031057;28;20040;-68
2022/12/04 01:43:16;;;;;;;86.72;41.95;;;2.60;99.90;;;;;;5030553;28;20075;-68
2022/12/04 01:45:46;;;;;;;87.22;42.13;;;2.50;99.90;;;;;;5032549;28;20042;-68
2022/12/04 01:48:20;;;;;;;89.28;45.80;;;2.60;99.90;;;;;;5032730;28;20025;-68
2022/12/04 01:50:50;;;;;;;88.78;43.20;;;2.50;99.90;;;;;;5031715;28;20033;-68
2022/12/04 01:53:19;;;;;;;83.28;41.67;;;2.60;99.90;;;;;;5032284;28;20059;-68
2022/12/04 01:55:46;;;;;;;87.72;42.30;;;2.60;99.90;;;;;;5029769;28;20038;-68
2022/12/04 01:58:14;;;;;;;79.95;41.17;;;2.50;99.90;;;;;;5028447;28;20017;-68
2022/12/04 02:00:40;;;;;;;84.57;37.88;;;2.50;99.90;;;;;;5032021;28;20096;-68
2022/12/04 02:03:06;;;;;;;82.15;40.38;;;2.50;99.90;;;;;;5031414;28;20036;-68
2022/12/04 02:05:32;;;;;;;89.00;42.03;;;2.60;99.90;;;;;;5020967;28;20025;-69
2022/12/04 02:08:04;;;;;;;84.57;40.80;;;2.60;99.90;;;;;;5031357;28;20030;-69
2022/12/04 02:10:47;;;;;;;84.85;43.65;;;2.60;99.90;;;;;;5030694;28;20034;-69
2022/12/04 02:13:35;;;;;;;87.13;43.92;;;2.60;99.90;;;;;;5030610;28;20033;-70
2022/12/04 02:16:17;;;;;;;85.75;42.70;;;2.50;99.90;;;;;;5030241;28;20315;-69
2022/12/04 02:19:01;;;;;;;84.28;40.42;;;2.50;99.90;;;;;;5047734;28;20033;-69
2022/12/04 02:21:48;;;;;;;87.97;43.10;;;2.50;99.90;;;;;;5031130;28;20048;-70
2022/12/04 02:24:46;;;;;;;89.18;42.10;;;2.50;99.90;;;;;;5030533;28;20029;-69
2022/12/04 02:27:38;;;;;;;82.50;40.75;;;2.50;99.90;;;;;;5031124;28;20022;-70
2022/12/04 02:30:07;;;;;;;81.72;39.78;;;2.50;99.90;;;;;;4996148;28;20109;-70
2022/12/04 02:32:36;;;;;;;79.65;41.78;;;2.50;99.90;;;;;;5030726;28;20045;-69
2022/12/04 02:35:20;;;;;;;88.03;43.38;;;2.60;99.90;;;;;;5025174;28;20037;-69
2022/12/04 02:37:52;;;;;;;88.35;41.72;;;2.60;99.90;;;;;;5031693;28;20033;-68
2022/12/04 02:40:26;;;;;;;89.45;42.67;;;2.60;99.90;;;;;;5023165;28;20025;-67
2022/12/04 02:43:02;;;;;;;83.60;39.72;;;2.50;99.90;;;;;;5029263;28;20029;-69
2022/12/04 02:45:40;;;;;;;87.53;39.70;;;2.50;99.90;;;;;;5030502;28;20100;-69
2022/12/04 02:48:07;;;;;;;85.35;41.08;;;2.50;99.90;;;;;;5032356;28;20243;-67
2022/12/04 02:50:39;;;;;;;90.28;43.70;;;2.50;99.90;;;;;;5029901;28;20032;-68
2022/12/04 02:53:16;;;;;;;94.07;43.80;;;2.50;99.90;;;;;;5031170;28;20021;-68
2022/12/04 02:55:57;;;;;;;84.20;41.85;;;2.50;99.90;;;;;;5024482;28;20030;-69
2022/12/04 02:58:47;;;;;;;85.28;42.00;;;2.40;99.90;;;;;;5030638;28;20087;-69
2022/12/04 03:01:20;;;;;;;91.47;42.60;;;2.40;99.90;;;;;;5029176;28;20041;-68
2022/12/04 03:04:13;;;;;;;89.35;42.45;;;2.40;99.90;;;;;;5028758;28;20037;-68
2022/12/04 03:06:42;;;;;;;88.43;41.97;;;2.40;99.90;;;;;;5025162;28;20025;-68
2022/12/04 03:09:20;;;;;;;91.32;43.08;;;2.40;99.90;;;;;;5031294;28;20044;-69
2022/12/04 03:11:53;;;;;;;91.55;47.40;;;2.40;99.90;;;;;;5027210;28;20068;-69
2022/12/04 03:14:28;;;;;;;99.05;45.00;;;2.40;99.90;;;;;;5031313;28;20061;-68
2022/12/04 03:17:02;;;;;;;86.88;40.53;;;2.40;99.90;;;;;;5028035;28;20062;-67
2022/12/04 03:19:37;;;;;;;76.57;39.35;;;2.40;99.90;;;;;;5030936;28;20033;-67
2022/12/04 03:22:09;;;;;;;97.68;44.80;;;2.40;99.90;;;;;;5028999;28;20124;-68
2022/12/04 03:24:44;;;;;;;92.50;42.97;;;2.40;99.90;;;;;;5029599;28;20049;-69
2022/12/04 03:27:29;;;;;;;82.50;39.55;;;2.40;99.90;;;;;;5019969;28;20080;-68
2022/12/04 03:29:58;;;;;;;79.00;37.45;;;2.40;99.90;;;;;;5029998;28;20041;-68
2022/12/04 03:32:49;;;;;;;90.65;43.50;;;2.50;99.90;;;;;;5031454;28;20465;-68
2022/12/04 03:35:31;;;;;;;91.07;41.45;;;2.50;99.90;;;;;;5029836;28;20034;-68
2022/12/04 03:38:04;;;;;;;86.22;40.72;;;2.60;99.90;;;;;;5031201;28;20042;-68
2022/12/04 03:40:36;;;;;;;81.45;40.17;;;2.50;99.90;;;;;;5029437;28;20040;-68
2022/12/04 03:43:18;;;;;;;89.45;39.90;;;2.50;99.90;;;;;;5030000;28;20075;-68
2022/12/04 03:46:02;;;;;;;82.65;36.75;;;2.60;99.90;;;;;;5027785;28;20068;-68
2022/12/04 03:48:41;;;;;;;92.05;42.13;;;2.60;99.90;;;;;;5026435;28;20112;-67
2022/12/04 03:51:16;;;;;;;86.03;39.90;;;2.60;99.90;;;;;;5025487;28;20079;-68
2022/12/04 03:53:53;;;;;;;84.25;37.60;;;2.60;99.90;;;;;;5030566;28;20064;-68
2022/12/04 03:56:26;;;;;;;82.95;39.15;;;2.60;99.90;;;;;;5026715;28;20516;-67
2022/12/04 03:58:59;;;;;;;90.55;41.15;;;2.60;99.90;;;;;;5020581;28;20492;-68
2022/12/04 04:01:31;;;;;;;80.63;41.25;;;2.60;99.90;;;;;;5027573;28;20594;-68
2022/12/04 04:03:59;;;;;;;86.07;39.55;;;2.60;99.90;;;;;;5029133;28;20045;-68
2022/12/04 04:06:31;;;;;;;85.63;41.65;;;2.60;99.90;;;;;;5027598;28;20539;-68
2022/12/04 04:09:07;;;;;;;88.55;40.33;;;2.60;99.90;;;;;;5029181;28;20033;-68
2022/12/04 04:11:57;;;;;;;86.30;40.30;;;2.70;99.90;;;;;;5028472;28;20396;-68
2022/12/04 04:25:51;;;;;;;79.03;38.78;;;2.70;99.90;;;;;;5023973;28;20045;-69
2022/12/04 04:28:30;;;;;;;86.13;38.85;;;2.60;99.90;;;;;;5029353;28;21701;-69
2022/12/04 04:31:06;;;;;;;80.78;40.53;;;2.60;99.90;;;;;;5030283;28;20025;-68
2022/12/04 04:33:40;;;;;;;76.43;39.55;;;2.60;99.90;;;;;;5033922;28;20489;-68
2022/12/04 04:36:21;;;;;;;80.22;40.25;;;2.70;99.90;;;;;;5032561;28;20067;-67
2022/12/04 04:39:01;;;;;;;73.28;36.15;;;2.70;99.90;;;;;;5034547;28;20531;-69
2022/12/04 04:41:42;;;;;;;77.13;37.83;;;2.80;99.90;;;;;;5032412;28;20039;-69
2022/12/04 04:44:18;;;;;;;79.22;38.58;;;2.80;99.90;;;;;;5031638;28;20348;-69
2022/12/04 04:46:50;;;;;;;76.07;38.75;;;2.80;99.90;;;;;;5027658;28;20033;-70
2022/12/04 04:49:18;;;;;;;85.10;40.55;;;2.80;99.90;;;;;;5032619;28;20483;-70
2022/12/04 04:51:45;;;;;;;75.70;37.25;;;2.70;99.90;;;;;;5032286;28;20496;-69
2022/12/04 04:54:15;;;;;;;79.70;37.08;;;2.80;99.90;;;;;;5032758;28;20033;-70
2022/12/04 04:56:45;;;;;;;83.35;40.28;;;2.80;99.90;;;;;;5025898;28;21134;-69
2022/12/04 04:59:12;;;;;;;81.28;40.75;;;2.80;99.90;;;;;;5022599;28;20053;-69
2022/12/04 05:01:40;;;;;;;76.70;38.30;;;2.80;99.90;;;;;;5029242;28;20052;-69
2022/12/04 05:04:06;;;;;;;80.28;38.75;;;2.80;99.90;;;;;;5033268;28;20400;-69
2022/12/04 05:06:32;;;;;;;81.18;38.65;;;2.80;99.90;;;;;;5031010;28;20176;-69
2022/12/04 05:08:57;;;;;;;82.55;38.58;;;2.80;99.90;;;;;;5033037;28;20113;-69
2022/12/04 05:11:23;;;;;;;82.18;40.22;;;2.80;99.90;;;;;;5031994;28;20029;-69
2022/12/04 05:13:49;;;;;;;81.70;39.45;;;2.80;99.90;;;;;;5032966;28;20392;-69
2022/12/04 05:16:15;;;;;;;81.03;41.17;;;2.80;99.90;;;;;;5030715;28;20040;-69
2022/12/04 05:19:52;;;;;;;80.18;37.75;;;2.80;99.90;;;;;;5021649;28;20036;-69
2022/12/04 05:21:30;;;;;;;77.65;38.55;;;2.90;99.90;;;;;;5029488;28;20370;-69
2022/12/04 05:23:56;;;;;;;87.50;42.38;;;2.90;99.90;;;;;;5033055;28;20037;-70
2022/12/04 05:26:22;;;;;;;78.95;39.08;;;2.90;99.90;;;;;;5030451;28;20036;-69
2022/12/04 05:28:48;;;;;;;72.85;38.25;;;2.90;99.90;;;;;;5014093;28;20018;-69
2022/12/04 05:31:14;;;;;;;75.70;36.33;;;2.90;99.90;;;;;;5028065;28;20392;-69
2022/12/04 05:33:39;;;;;;;75.45;39.05;;;2.90;99.90;;;;;;5032598;28;20512;-68
2022/12/04 05:36:08;;;;;;;80.30;38.58;;;3.00;99.90;;;;;;5028763;28;20072;-69
2022/12/04 05:38:35;;;;;;;80.68;38.53;;;3.00;99.90;;;;;;5033449;28;20071;-68
2022/12/04 05:41:03;;;;;;;69.70;36.22;;;2.90;99.90;;;;;;5030590;28;20572;-68
2022/12/04 05:43:29;;;;;;;83.00;38.45;;;3.00;99.90;;;;;;5026487;28;20052;-68
2022/12/04 05:46:04;;;;;;;81.90;39.05;;;2.90;99.90;;;;;;5031555;28;20044;-68
2022/12/04 05:48:30;;;;;;;75.97;38.60;;;2.90;99.90;;;;;;5025454;28;20069;-69
2022/12/04 05:50:56;;;;;;;82.10;38.53;;;2.90;99.90;;;;;;5029683;28;20060;-68
2022/12/04 05:53:22;;;;;;;78.13;40.15;;;2.90;99.90;;;;;;5030921;28;20030;-68
2022/12/04 05:55:58;;;;;;;75.88;37.17;;;2.90;99.90;;;;;;5032149;28;20080;-68
2022/12/04 05:58:24;;;;;;;74.05;39.53;;;2.90;99.90;;;;;;5029408;28;20030;-69
2022/12/04 06:00:50;;;;;;;76.68;38.10;;;2.90;99.90;;;;;;5029228;28;20130;-68
2022/12/04 06:03:16;;;;;;;77.07;38.00;;;3.00;99.90;;;;;;5030620;28;20053;-69
2022/12/04 06:05:42;;;;;;;79.93;37.88;;;2.90;99.90;;;;;;5031853;28;20041;-69
2022/12/04 06:08:08;;;;;;;74.85;39.25;;;3.00;99.90;;;;;;5031025;28;20061;-69
2022/12/04 06:10:34;;;;;;;77.82;36.80;;;2.90;99.90;;;;;;5030880;28;20048;-69
2022/12/04 06:12:59;;;;;;;71.55;35.58;;;2.90;99.90;;;;;;5030132;28;20033;-69
2022/12/04 06:15:25;;;;;;;74.28;36.08;;;2.90;99.90;;;;;;5029028;28;20556;-68
2022/12/04 06:17:50;;;;;;;72.57;38.22;;;3.00;99.90;;;;;;5030780;28;20029;-70
2022/12/04 06:20:16;;;;;;;80.53;38.22;;;3.00;99.90;;;;;;5029956;28;20029;-68
2022/12/04 06:22:42;;;;;;;82.95;39.03;;;2.90;99.90;;;;;;5031563;28;20469;-68
2022/12/04 06:25:08;;;;;;;77.38;37.20;;;2.90;99.90;;;;;;5030950;28;20039;-69
2022/12/04 06:27:34;;;;;;;72.82;38.17;;;3.00;99.90;;;;;;5027058;28;20491;-69
2022/12/04 06:30:01;;;;;;;87.60;38.47;;;3.00;99.90;;;;;;5029443;28;20033;-69
2022/12/04 06:32:26;;;;;;;79.63;36.42;;;3.00;99.90;;;;;;5028970;28;20022;-69
2022/12/04 06:34:53;;;;;;;73.75;37.17;;;3.00;99.90;;;;;;5030589;28;20033;-68
2022/12/04 06:37:21;;;;;;;76.43;37.78;;;2.90;99.90;;;;;;5030319;28;20396;-68
2022/12/04 06:39:47;;;;;;;73.07;39.30;;;3.00;99.90;;;;;;5029777;28;20037;-68
2022/12/04 06:42:13;;;;;;;77.15;38.80;;;3.00;99.90;;;;;;5045393;28;20021;-68
2022/12/04 06:44:39;;;;;;;78.05;38.22;;;3.00;99.90;;;;;;5030324;28;20534;-69
2022/12/04 06:47:05;;;;;;;79.28;39.50;;;3.00;99.90;;;;;;5026716;28;20025;-69
2022/12/04 06:49:31;;;;;;;79.63;37.75;;;3.00;99.90;;;;;;5029345;28;20117;-69
2022/12/04 06:51:57;;;;;;;77.10;36.45;;;3.00;99.90;;;;;;5025169;28;20548;-70
2022/12/04 06:54:22;;;;;;;67.18;35.10;;;3.00;99.90;;;;;;5028632;28;20014;-70
2022/12/04 06:56:48;;;;;;;70.90;35.83;;;3.10;99.90;;;;;;5031479;28;20484;-70
2022/12/04 06:59:14;;;;;;;71.57;35.67;;;3.10;99.90;;;;;;5030908;28;20033;-70
2022/12/04 07:01:40;;;;;;;69.00;35.67;;;3.10;99.90;;;;;;5031147;28;20492;-69
2022/12/04 07:04:05;;;;;;;73.53;36.40;;;3.10;99.90;;;;;;5028853;28;20041;-70
2022/12/04 07:06:33;;;;;;;73.13;37.60;;;3.10;99.90;;;;;;5029462;28;20029;-69
2022/12/04 07:09:12;;;;;;;73.25;38.90;;;3.10;99.90;;;;;;5029462;28;20032;-69
2022/12/04 07:11:39;;;;;;;73.65;37.15;;;3.10;99.90;;;;;;5030129;28;20087;-69
2022/12/04 07:14:04;;;;;;;74.18;37.53;;;3.10;99.90;;;;;;5030207;28;20492;-69
2022/12/04 07:16:30;;;;;;;73.70;37.90;;;3.10;99.90;;;;;;5028985;28;20041;-69
2022/12/04 07:18:56;;;;;;;77.80;38.10;;;3.10;99.90;;;;;;5027972;28;20033;-69
2022/12/04 07:21:26;;;;;;;77.82;38.42;;;3.10;99.90;;;;;;5029381;28;20021;-69
2022/12/04 07:23:55;;;;;;;75.45;39.35;;;3.10;99.90;;;;;;5028719;28;20067;-69
2022/12/04 07:26:21;;;;;;;74.57;36.50;;;3.10;99.90;;;;;;5028136;28;20049;-69
2022/12/04 07:28:48;;;;;;;72.00;37.88;;;3.00;99.90;;;;;;5026947;28;20048;-69
2022/12/04 07:31:16;;;;;;;78.65;36.80;;;3.00;99.90;;;;;;5027492;28;20029;-69
2022/12/04 07:33:43;;;;;;;71.78;36.85;;;3.10;99.90;;;;;;5029556;28;20112;-69
2022/12/04 07:36:12;;;;;;;67.05;35.15;;;3.00;99.90;;;;;;5028954;28;20392;-69
2022/12/04 07:38:38;;;;;;;71.28;34.78;;;3.10;99.90;;;;;;5029563;28;20116;-69
2022/12/04 07:41:05;;;;;;;80.15;38.15;;;3.10;99.90;;;;;;5027268;28;20156;-68
2022/12/04 07:43:31;;;;;;;70.63;35.42;;;3.10;99.90;;;;;;5028433;28;20057;-68
2022/12/04 07:46:02;;;;;;;66.43;36.15;;;3.10;99.90;;;;;;5028618;28;20045;-68
2022/12/04 07:48:28;;;;;;;71.95;35.88;;;3.20;99.90;;;;;;5030154;28;20036;-69
2022/12/04 07:51:08;;;;;;;71.45;34.85;;;3.20;99.90;;;;;;5028140;28;20033;-69
2022/12/04 07:53:34;;;;;;;65.18;33.22;;;3.20;99.90;;;;;;5031173;28;20022;-69
2022/12/04 07:56:01;;;;;;;72.75;36.75;;;3.20;99.90;;;;;;5029971;28;20094;-70
2022/12/04 07:58:26;;;;;;;67.60;33.75;;;3.20;99.90;;;;;;5031202;28;20038;-69
2022/12/04 08:00:52;;;;;;;70.75;35.75;;;3.20;99.90;;;;;;5024644;28;20047;-68
2022/12/04 08:03:18;;;;;;;76.35;38.17;;;3.20;99.90;;;;;;5025213;28;20064;-70
2022/12/04 08:05:43;;;;;;;72.88;36.13;;;3.20;99.90;;;;;;5023791;28;20079;-70
2022/12/04 08:08:12;;;;;;;74.30;35.05;;;3.20;99.90;;;;;;5024149;28;20464;-70
2022/12/04 08:10:40;;;;;;;78.57;40.38;;;3.20;99.90;;;;;;5032343;28;20030;-69
2022/12/04 08:13:06;;;;;;;78.55;38.08;;;3.30;99.90;;;;;;5024960;28;20037;-71
2022/12/04 08:15:33;;;;;;;77.82;36.90;;;3.20;99.90;;;;;;5031558;28;20029;-69
2022/12/04 08:17:59;;;;;;;79.68;38.70;;;3.20;99.90;;;;;;5031410;28;20596;-70
2022/12/04 08:20:25;;;;;;;73.55;37.05;;;3.20;99.90;;;;;;5031061;28;20061;-70
2022/12/04 08:22:50;;;;;;;74.70;36.53;;;3.10;99.90;;;;;;5030114;28;20496;-69
2022/12/04 08:25:17;;;;;;;78.90;38.78;;;3.10;99.90;;;;;;5030866;28;20048;-70
2022/12/04 08:27:45;;;;;;;69.18;36.15;;;3.10;99.90;;;;;;5019546;28;20118;-70
2022/12/04 08:30:12;;;;;;;74.38;36.78;;;3.20;99.90;;;;;;5034062;28;20083;-68
2022/12/04 08:32:37;;;;;;;77.63;36.50;;;3.20;99.90;;;;;;5024650;28;20036;-70
2022/12/04 08:35:04;;;;;;;72.03;35.55;;;3.20;99.90;;;;;;5031164;28;20022;-69
2022/12/04 08:37:30;;;;;;;72.25;35.97;;;3.20;99.90;;;;;;5032902;28;20083;-70
2022/12/04 08:39:57;;;;;;;72.85;35.97;;;3.20;99.90;;;;;;5033525;28;20033;-68
2022/12/04 08:42:22;;;;;;;67.85;35.17;;;3.20;99.90;;;;;;5031631;28;20029;-67
2022/12/04 08:44:48;;;;;;;75.10;38.35;;;3.20;99.90;;;;;;5028542;28;20060;-67
2022/12/04 08:47:14;;;;;;;72.03;35.03;;;3.20;99.90;;;;;;5033481;28;20048;-67
2022/12/04 08:49:39;;;;;;;72.47;36.03;;;3.20;99.90;;;;;;5033139;28;20037;-67
2022/12/04 08:52:05;;;;;;;73.93;37.28;;;3.20;99.90;;;;;;5032502;28;20033;-67
2022/12/04 08:54:31;;;;;;;76.03;35.38;;;3.20;99.90;;;;;;5032093;28;20057;-67
2022/12/04 08:56:56;;;;;;;72.43;35.47;;;3.20;99.90;;;;;;5031210;28;20540;-68
2022/12/04 08:59:22;;;;;;;73.07;37.58;;;3.20;99.90;;;;;;5032644;28;20038;-67
2022/12/04 09:01:50;;;;;;;67.78;33.92;;;3.20;99.90;;;;;;5019233;28;20068;-67
2022/12/04 09:04:16;;;;;;;71.40;34.00;;;3.20;99.90;;;;;;5031395;28;20041;-67
2022/12/04 09:06:42;;;;;;;69.68;34.13;;;3.30;99.90;;;;;;5030352;28;20077;-67
2022/12/04 09:09:07;;;;;;;67.82;37.08;;;3.30;99.90;;;;;;5016776;28;20594;-67
2022/12/04 09:11:33;;;;;;;67.60;35.03;;;3.30;99.90;;;;;;5030564;28;20033;-67
2022/12/04 09:14:01;;;;;;;81.47;38.25;;;3.30;99.90;;;;;;5046840;28;20124;-68
2022/12/04 09:16:26;;;;;;;70.32;35.25;;;3.30;99.90;;;;;;5031909;28;20029;-67
2022/12/04 09:18:53;;;;;;;72.15;35.90;;;3.40;99.90;;;;;;5030207;28;20083;-67
2022/12/04 09:21:21;;;;;;;72.85;35.38;;;3.40;99.90;;;;;;5031969;28;20026;-68
2022/12/04 09:23:47;;;;;;;64.82;32.30;;;3.40;99.90;;;;;;5032734;28;20041;-68
2022/12/04 09:26:22;;;;;;;73.13;36.35;;;3.50;99.90;;;;;;5031818;28;20061;-66
2022/12/04 09:28:50;;;;;;;67.22;34.00;;;3.50;99.90;;;;;;5029652;28;20029;-67
2022/12/04 09:31:17;;;;;;;65.82;33.38;;;3.60;99.90;;;;;;5030394;28;20037;-67
2022/12/04 09:33:42;;;;;;;66.60;33.95;;;3.60;99.90;;;;;;5032955;28;20033;-68
2022/12/04 09:36:14;;;;;;;63.45;34.38;;;3.60;99.90;;;;;;5030661;28;20159;-67
2022/12/04 09:38:44;;;;;;;61.65;32.03;;;3.60;99.90;;;;;;5026634;28;20048;-65
2022/12/04 09:41:21;;;;;;;78.80;37.67;;;3.60;99.90;;;;;;5031969;28;20037;-68
2022/12/04 09:43:51;;;;;;;64.90;32.28;;;3.60;99.90;;;;;;5032717;28;20091;-67
2022/12/04 09:46:39;;;;;;;75.38;36.42;;;3.60;99.90;;;;;;5031065;28;20045;-67
2022/12/04 09:49:25;;;;;;;66.28;32.35;;;3.60;99.90;;;;;;5032906;28;20104;-68
2022/12/04 09:51:55;;;;;;;72.03;35.53;;;3.50;99.90;;;;;;5032722;28;20417;-67
2022/12/04 09:54:26;;;;;;;71.68;35.30;;;3.50;99.90;;;;;;5031485;28;20393;-66
2022/12/04 09:56:58;;;;;;;67.78;34.85;;;3.50;99.90;;;;;;5032103;28;20037;-72
2022/12/04 09:59:26;;;;;;;73.95;34.25;;;3.50;99.90;;;;;;5032520;28;20428;-69
2022/12/04 10:02:27;;;;;;;72.03;34.42;;;3.50;99.90;;;;;;5031480;28;20060;-72
2022/12/04 10:04:54;;;;;;;62.45;30.35;;;3.70;99.90;;;;;;5050929;28;20381;-70
2022/12/04 10:07:27;;;;;;;66.93;31.58;;;4.00;99.90;;;;;;5031774;28;20022;-70
2022/12/04 10:10:22;;;;;;;59.08;31.75;;;4.00;99.90;;;;;;5030773;28;20481;-69
2022/12/04 10:13:17;;;;;;;59.72;31.10;;;4.00;99.90;;;;;;5048148;28;20124;-70
2022/12/04 10:16:06;;;;;;;66.72;35.28;;;4.00;99.90;;;;;;5046919;28;20100;-70
2022/12/04 10:18:44;;;;;;;65.00;34.22;;;4.00;99.90;;;;;;5021432;28;20081;-69
2022/12/04 10:21:22;;;;;;;65.55;33.40;;;3.90;99.90;;;;;;5028706;28;20060;-70
2022/12/04 10:23:57;;;;;;;63.88;34.22;;;3.90;99.90;;;;;;5031449;28;20029;-70
2022/12/04 10:26:32;;;;;;;62.95;34.95;;;3.90;99.90;;;;;;5032210;28;20033;-70
2022/12/04 10:29:02;;;;;;;66.60;34.03;;;3.90;99.90;;;;;;5031675;28;20033;-70
2022/12/04 10:31:29;;;;;;;64.45;32.95;;;3.90;99.90;;;;;;5024338;28;20471;-68
2022/12/04 10:34:01;;;;;;;68.28;31.75;;;3.80;99.90;;;;;;5031631;28;20104;-69
2022/12/04 10:36:33;;;;;;;60.17;30.70;;;3.90;99.90;;;;;;5023907;28;20037;-70
2022/12/04 10:39:04;;;;;;;68.40;35.53;;;3.90;99.90;;;;;;5037880;28;20112;-68
2022/12/04 10:41:32;;;;;;;65.03;32.50;;;3.90;99.90;;;;;;5021313;28;20022;-69
2022/12/04 10:43:58;;;;;;;65.60;34.10;;;3.90;99.90;;;;;;5017580;28;20034;-70
2022/12/04 10:46:27;;;;;;;67.25;34.67;;;4.00;99.90;;;;;;5022295;28;20484;-69
2022/12/04 10:49:08;;;;;;;63.53;32.95;;;4.00;99.90;;;;;;5031036;28;20084;-69
2022/12/04 10:51:42;;;;;;;60.75;33.03;;;4.00;99.90;;;;;;5028850;28;20037;-69
2022/12/04 10:54:21;;;;;;;60.80;34.27;;;3.90;99.90;;;;;;5029646;28;20040;-68
2022/12/04 10:56:57;;;;;;;66.05;32.92;;;4.00;99.90;;;;;;5025000;28;20033;-68
2022/12/04 10:59:23;;;;;;;68.72;33.30;;;3.90;99.90;;;;;;5029358;28;20061;-69
2022/12/04 11:01:57;;;;;;;64.47;31.95;;;3.90;99.90;;;;;;5030185;28;20029;-69
2022/12/04 11:04:26;;;;;;;72.20;32.43;;;3.90;99.90;;;;;;5013660;28;20029;-69
2022/12/04 11:07:17;;;;;;;59.63;31.23;;;3.90;99.90;;;;;;5030559;28;20037;-69
2022/12/04 11:09:52;;;;;;;59.78;30.98;;;3.80;99.90;;;;;;5028747;28;20068;-69
2022/12/04 11:12:21;;;;;;;62.00;31.52;;;3.80;99.90;;;;;;5018670;28;20036;-69
2022/12/04 11:14:57;;;;;;;57.97;30.67;;;3.80;99.90;;;;;;5029151;28;20060;-69
2022/12/04 11:17:23;;;;;;;63.17;32.35;;;3.80;99.90;;;;;;5028917;28;20026;-69
2022/12/04 11:20:02;;;;;;;75.43;36.75;;;3.80;99.90;;;;;;5045523;28;20025;-70
2022/12/04 11:22:28;;;;;;;63.08;35.25;;;3.90;99.90;;;;;;5030174;28;20041;-70
2022/12/04 11:24:57;;;;;;;61.53;31.23;;;3.90;99.90;;;;;;5031022;28;20033;-69
2022/12/04 11:27:33;;;;;;;57.88;31.70;;;3.90;99.90;;;;;;5031141;28;20041;-69
2022/12/04 11:30:40;;;;;;;63.05;33.22;;;3.90;99.90;;;;;;5028186;28;20021;-69
2022/12/04 11:33:22;;;;;;;62.15;31.75;;;4.00;99.90;;;;;;5027610;28;20041;-70
2022/12/04 11:35:54;;;;;;;56.65;30.50;;;3.90;99.90;;;;;;5029914;28;20048;-70
2022/12/04 11:38:25;;;;;;;66.93;32.42;;;4.00;99.90;;;;;;5030688;28;20030;-70
2022/12/04 11:40:54;;;;;;;61.35;29.80;;;4.00;99.90;;;;;;5030374;28;20464;-69
2022/12/04 11:43:23;;;;;;;63.45;32.38;;;4.00;99.90;;;;;;5034553;28;20028;-70
2022/12/04 11:46:19;;;;;;;54.00;29.30;;;4.00;99.90;;;;;;5032121;28;20192;-71
2022/12/04 11:48:45;;;;;;;63.97;32.97;;;3.90;99.90;;;;;;5030646;28;20041;-70
2022/12/04 11:51:42;;;;;;;62.88;33.38;;;4.00;99.90;;;;;;5033223;28;20029;-69
2022/12/04 11:54:45;;;;;;;57.83;31.83;;;3.90;99.90;;;;;;5034812;28;20064;-68
2022/12/04 11:57:21;;;;;;;62.05;32.58;;;3.90;99.90;;;;;;5049029;28;20084;-67
2022/12/04 12:00:08;;;;;;;56.90;31.15;;;3.90;99.90;;;;;;5030671;28;20053;-68
2022/12/04 12:03:00;;;;;;;55.85;29.90;;;3.90;99.90;;;;;;5029474;28;20029;-68
2022/12/04 12:05:55;;;;;;;57.53;30.33;;;3.90;99.90;;;;;;5023673;28;20124;-69
2022/12/04 12:08:44;;;;;;;57.70;29.75;;;4.00;99.90;;;;;;5026554;28;20032;-68
2022/12/04 12:11:25;;;;;;;53.63;27.27;;;3.90;99.90;;;;;;4999230;28;20030;-68
2022/12/04 12:14:03;;;;;;;51.60;28.30;;;3.90;99.90;;;;;;5028461;28;20017;-67
2022/12/04 12:16:44;;;;;;;55.00;28.70;;;3.90;99.90;;;;;;5031501;28;20036;-68
2022/12/04 12:19:34;;;;;;;55.30;28.52;;;4.00;99.90;;;;;;5030393;28;20029;-69
2022/12/04 12:22:32;;;;;;;52.25;28.75;;;4.00;99.90;;;;;;5031066;28;20029;-67
2022/12/04 12:25:05;;;;;;;52.45;28.13;;;4.00;99.90;;;;;;5026771;28;20042;-68
2022/12/04 12:28:05;;;;;;;54.10;28.15;;;4.00;99.90;;;;;;5029732;28;20080;-68
2022/12/04 12:31:02;;;;;;;56.10;28.77;;;4.10;99.90;;;;;;5017016;28;20045;-70
2022/12/04 12:33:38;;;;;;;51.58;27.58;;;4.10;99.90;;;;;;4992357;28;20045;-68
2022/12/04 12:36:12;;;;;;;48.88;26.48;;;4.10;99.90;;;;;;5030358;28;20127;-68
2022/12/04 12:38:50;;;;;;;52.28;28.13;;;4.20;99.90;;;;;;5032701;28;20064;-69
2022/12/04 12:41:20;;;;;;;52.80;27.05;;;4.20;99.90;;;;;;5031176;28;20032;-68
2022/12/04 12:43:55;;;;;;;54.05;30.95;;;4.20;99.90;;;;;;5033000;28;20029;-68
2022/12/04 12:46:42;;;;;;;52.75;28.95;;;4.20;99.90;;;;;;5024360;28;20555;-69
2022/12/04 12:49:17;;;;;;;54.22;29.15;;;4.20;99.90;;;;;;5031295;28;20037;-69
2022/12/04 12:52:06;;;;;;;59.95;30.02;;;4.20;99.90;;;;;;5035309;28;20029;-70
2022/12/04 12:54:50;;;;;;;53.92;29.73;;;4.20;99.90;;;;;;5031784;28;20048;-70
2022/12/04 12:57:28;;;;;;;56.38;28.20;;;4.20;99.90;;;;;;5029942;28;20075;-71
2022/12/04 13:00:06;;;;;;;54.55;30.70;;;4.20;99.90;;;;;;4994821;28;1097015;-70
2022/12/04 13:02:32;;;;;;;54.03;30.33;;;4.20;99.90;;;;;;5032194;28;20034;-69
2022/12/04 13:05:06;;;;;;;53.55;29.27;;;4.20;99.90;;;;;;5032210;28;20034;-69
2022/12/04 13:07:47;;;;;;;58.47;29.23;;;4.30;99.90;;;;;;5031144;28;20061;-69
2022/12/04 13:10:19;;;;;;;56.50;30.98;;;4.30;99.90;;;;;;5048373;28;20065;-69